createdAt,value
2018-04-25T00:00:18.129Z,11.62
2018-04-25T00:01:22.691Z,11.57
2018-04-25T00:02:28.068Z,11.68
2018-04-25T00:03:32.242Z,11.75
2018-04-25T00:04:37.284Z,11.66
2018-04-25T00:05:41.365Z,11.66
2018-04-25T00:06:45.581Z,11.64
2018-04-25T00:07:50.171Z,11.60
2018-04-25T00:08:54.272Z,11.72
2018-04-25T00:09:58.394Z,11.72
2018-04-25T00:11:03.112Z,11.66
2018-04-25T00:12:07.256Z,11.66
2018-04-25T00:13:11.346Z,11.60
2018-04-25T00:14:16.330Z,11.66
2018-04-25T00:15:20.970Z,11.64
2018-04-25T00:16:25.132Z,11.64
2018-04-25T00:17:29.774Z,11.58
2018-04-25T00:18:33.868Z,11.63
2018-04-25T00:19:38.516Z,11.69
2018-04-25T00:20:42.948Z,11.82
2018-04-25T00:21:47.134Z,11.84
2018-04-25T00:22:51.198Z,11.91
2018-04-25T00:23:55.350Z,11.84
2018-04-25T00:24:59.456Z,11.86
2018-04-25T00:26:03.532Z,11.85
2018-04-25T00:27:07.601Z,11.86
2018-04-25T00:28:11.772Z,11.78
2018-04-25T00:29:16.200Z,11.76
2018-04-25T00:30:20.722Z,11.81
2018-04-25T00:31:24.806Z,11.71
2018-04-25T00:32:29.962Z,11.63
2018-04-25T00:33:34.278Z,11.62
2018-04-25T00:34:38.948Z,11.63
2018-04-25T00:35:43.034Z,11.73
2018-04-25T00:36:47.270Z,11.84
2018-04-25T00:37:51.397Z,11.92
2018-04-25T00:38:55.778Z,11.83
2018-04-25T00:39:59.855Z,11.82
2018-04-25T00:41:03.963Z,11.81
2018-04-25T00:42:08.086Z,11.76
2018-04-25T00:43:12.590Z,11.78
2018-04-25T00:44:18.011Z,11.77
2018-04-25T00:45:22.423Z,11.77
2018-04-25T00:46:26.509Z,11.81
2018-04-25T00:47:30.678Z,11.74
2018-04-25T00:48:34.752Z,11.74
2018-04-25T00:49:39.564Z,11.82
2018-04-25T00:50:43.955Z,11.81
2018-04-25T00:51:48.030Z,11.87
2018-04-25T00:52:52.128Z,11.87
2018-04-25T00:53:56.278Z,11.83
2018-04-25T00:55:00.396Z,11.84
2018-04-25T00:56:04.533Z,11.91
2018-04-25T00:57:08.692Z,11.85
2018-04-25T00:58:12.958Z,11.91
2018-04-25T00:59:17.362Z,11.89
2018-04-25T01:00:21.748Z,11.88
2018-04-25T01:01:25.842Z,11.85
2018-04-25T01:02:30.372Z,11.85
2018-04-25T01:03:35.153Z,11.84
2018-04-25T01:04:39.461Z,11.89
2018-04-25T01:05:43.827Z,11.97
2018-04-25T01:06:47.955Z,11.97
2018-04-25T01:07:52.031Z,11.93
2018-04-25T01:08:56.513Z,11.92
2018-04-25T01:10:00.656Z,11.99
2018-04-25T01:11:04.739Z,12.06
2018-04-25T01:12:08.857Z,12.06
2018-04-25T01:13:12.977Z,12.07
2018-04-25T01:14:17.473Z,12.09
2018-04-25T01:15:22.367Z,12.10
2018-04-25T01:16:27.187Z,12.13
2018-04-25T01:17:31.439Z,12.12
2018-04-25T01:18:35.660Z,12.10
2018-04-25T01:19:39.867Z,12.07
2018-04-25T01:20:44.036Z,12.05
2018-04-25T01:21:48.514Z,12.05
2018-04-25T01:22:52.791Z,12.10
2018-04-25T01:23:57.335Z,12.17
2018-04-25T01:25:01.513Z,12.15
2018-04-25T01:26:06.824Z,12.10
2018-04-25T01:27:11.045Z,12.15
2018-04-25T01:28:15.768Z,12.18
2018-04-25T01:29:20.247Z,12.15
2018-04-25T01:30:26.090Z,12.14
2018-04-25T01:31:30.597Z,12.17
2018-04-25T01:32:35.171Z,12.21
2018-04-25T01:33:40.588Z,12.21
2018-04-25T01:34:45.112Z,12.19
2018-04-25T01:35:49.282Z,12.25
2018-04-25T01:36:53.627Z,12.29
2018-04-25T01:37:58.947Z,12.27
2018-04-25T01:39:03.065Z,12.28
2018-04-25T01:40:08.189Z,12.29
2018-04-25T01:41:12.329Z,12.27
2018-04-25T01:42:16.893Z,12.27
2018-04-25T01:43:21.287Z,12.25
2018-04-25T01:44:25.476Z,12.31
2018-04-25T01:45:31.457Z,12.29
2018-04-25T01:46:36.735Z,12.34
2018-04-25T01:47:41.617Z,12.36
2018-04-25T01:48:54.659Z,12.40
2018-04-25T01:50:00.787Z,12.39
2018-04-25T01:51:03.966Z,12.37
2018-04-25T01:52:19.699Z,12.36
2018-04-25T01:53:34.747Z,12.35
2018-04-25T01:54:49.617Z,12.33
2018-04-25T01:56:04.713Z,12.36
2018-04-25T01:57:19.989Z,12.39
2018-04-25T01:58:34.982Z,12.43
2018-04-25T01:59:50.025Z,12.42
2018-04-25T02:01:04.999Z,12.44
2018-04-25T02:02:08.079Z,12.45
2018-04-25T02:03:10.965Z,12.53
2018-04-25T02:04:15.121Z,12.57
2018-04-25T02:05:19.203Z,12.58
2018-04-25T02:06:23.346Z,12.55
2018-04-25T02:07:27.705Z,12.57
2018-04-25T02:08:31.863Z,12.58
2018-04-25T02:09:36.933Z,12.61
2018-04-25T02:10:41.387Z,12.63
2018-04-25T02:11:45.549Z,12.67
2018-04-25T02:12:49.616Z,12.66
2018-04-25T02:13:53.777Z,12.65
2018-04-25T02:14:58.243Z,12.66
2018-04-25T02:16:02.538Z,12.69
2018-04-25T02:17:06.753Z,12.69
2018-04-25T02:18:11.282Z,12.71
2018-04-25T02:19:15.496Z,12.71
2018-04-25T02:20:19.769Z,12.69
2018-04-25T02:21:24.502Z,12.69
2018-04-25T02:22:28.920Z,12.71
2018-04-25T02:23:33.089Z,12.73
2018-04-25T02:24:37.255Z,12.72
2018-04-25T02:25:41.347Z,12.73
2018-04-25T02:26:46.404Z,12.73
2018-04-25T02:27:50.547Z,12.72
2018-04-25T02:28:55.434Z,12.71
2018-04-25T02:29:59.552Z,12.71
2018-04-25T02:31:04.121Z,12.72
2018-04-25T02:32:08.504Z,12.74
2018-04-25T02:33:12.603Z,12.74
2018-04-25T02:34:17.037Z,12.74
2018-04-25T02:35:21.551Z,12.74
2018-04-25T02:36:25.973Z,12.76
2018-04-25T02:37:30.239Z,12.78
2018-04-25T02:38:34.619Z,12.78
2018-04-25T02:39:40.043Z,12.79
2018-04-25T02:40:44.218Z,12.79
2018-04-25T02:41:49.110Z,12.80
2018-04-25T02:42:53.962Z,12.85
2018-04-25T02:43:58.110Z,12.88
2018-04-25T02:45:04.125Z,12.90
2018-04-25T02:46:09.035Z,12.87
2018-04-25T02:47:13.103Z,12.90
2018-04-25T02:48:17.175Z,12.86
2018-04-25T02:49:21.339Z,12.94
2018-04-25T02:50:25.393Z,12.96
2018-04-25T02:51:29.439Z,12.95
2018-04-25T02:52:34.050Z,12.92
2018-04-25T02:53:38.117Z,12.92
2018-04-25T02:54:42.253Z,12.91
2018-04-25T02:55:46.991Z,12.91
2018-04-25T02:56:51.352Z,12.95
2018-04-25T02:57:56.930Z,12.95
2018-04-25T02:59:01.488Z,12.95
2018-04-25T03:00:07.382Z,12.95
2018-04-25T03:01:11.760Z,12.94
2018-04-25T03:02:15.913Z,13.01
2018-04-25T03:03:20.105Z,13.06
2018-04-25T03:04:24.696Z,13.07
2018-04-25T03:05:28.837Z,13.06
2018-04-25T03:06:33.417Z,13.04
2018-04-25T03:07:37.820Z,13.10
2018-04-25T03:08:43.742Z,13.13
2018-04-25T03:09:48.709Z,13.20
2018-04-25T03:10:53.787Z,13.28
2018-04-25T03:11:57.952Z,13.26
2018-04-25T03:13:02.497Z,13.25
2018-04-25T03:14:06.760Z,13.23
2018-04-25T03:15:13.540Z,13.23
2018-04-25T03:16:18.416Z,13.21
2018-04-25T03:17:22.912Z,13.24
2018-04-25T03:18:27.297Z,13.22
2018-04-25T03:19:32.028Z,13.23
2018-04-25T03:20:36.606Z,13.32
2018-04-25T03:21:41.212Z,13.33
2018-04-25T03:22:46.450Z,13.35
2018-04-25T03:23:50.633Z,13.35
2018-04-25T03:24:55.091Z,13.34
2018-04-25T03:25:59.558Z,13.38
2018-04-25T03:27:03.649Z,13.36
2018-04-25T03:28:08.109Z,13.35
2018-04-25T03:29:12.187Z,13.33
2018-04-25T03:30:16.633Z,13.30
2018-04-25T03:31:20.755Z,13.30
2018-04-25T03:32:25.188Z,13.35
2018-04-25T03:33:29.252Z,13.33
2018-04-25T03:34:34.027Z,13.34
2018-04-25T03:35:38.117Z,13.36
2018-04-25T03:36:43.780Z,13.39
2018-04-25T03:37:48.264Z,13.43
2018-04-25T03:38:52.690Z,13.45
2018-04-25T03:39:57.519Z,13.49
2018-04-25T03:41:01.996Z,13.49
2018-04-25T03:42:06.864Z,13.49
2018-04-25T03:43:10.964Z,13.48
2018-04-25T03:44:15.045Z,13.48
2018-04-25T03:45:19.552Z,13.49
2018-04-25T03:46:24.018Z,13.47
2018-04-25T03:47:28.158Z,13.46
2018-04-25T03:48:32.331Z,13.46
2018-04-25T03:49:36.526Z,13.49
2018-04-25T03:50:40.598Z,13.49
2018-04-25T03:51:44.711Z,13.50
2018-04-25T03:52:48.888Z,13.50
2018-04-25T03:53:53.012Z,13.52
2018-04-25T03:54:57.076Z,13.58
2018-04-25T03:56:01.269Z,13.61
2018-04-25T03:57:05.328Z,13.63
2018-04-25T03:58:09.765Z,13.62
2018-04-25T03:59:13.979Z,13.61
2018-04-25T04:00:18.219Z,13.58
2018-04-25T04:01:22.364Z,13.58
2018-04-25T04:02:26.444Z,13.62
2018-04-25T04:03:30.543Z,13.63
2018-04-25T04:04:34.864Z,13.61
2018-04-25T04:05:38.983Z,13.62
2018-04-25T04:06:43.053Z,13.61
2018-04-25T04:07:47.130Z,13.60
2018-04-25T04:08:51.293Z,13.57
2018-04-25T04:09:55.398Z,13.55
2018-04-25T04:10:59.845Z,13.52
2018-04-25T04:12:03.931Z,13.52
2018-04-25T04:13:08.055Z,13.52
2018-04-25T04:14:12.137Z,13.51
2018-04-25T04:15:17.111Z,13.55
2018-04-25T04:16:21.511Z,13.54
2018-04-25T04:17:25.896Z,13.53
2018-04-25T04:18:29.996Z,13.50
2018-04-25T04:19:34.327Z,13.50
2018-04-25T04:20:38.649Z,13.35
2018-04-25T04:21:42.949Z,13.10
2018-04-25T04:22:47.127Z,12.89
2018-04-25T04:23:51.627Z,12.73
2018-04-25T04:24:56.917Z,12.64
2018-04-25T04:26:01.082Z,12.61
2018-04-25T04:27:05.195Z,12.58
2018-04-25T04:28:09.645Z,12.58
2018-04-25T04:29:14.619Z,12.57
2018-04-25T04:30:18.707Z,12.57
2018-04-25T04:31:23.319Z,12.60
2018-04-25T04:32:27.669Z,12.60
2018-04-25T04:33:32.199Z,12.59
2018-04-25T04:34:36.487Z,12.58
2018-04-25T04:35:40.977Z,12.58
2018-04-25T04:36:45.104Z,12.65
2018-04-25T04:37:49.247Z,12.63
2018-04-25T04:38:53.367Z,12.62
2018-04-25T04:39:57.517Z,12.59
2018-04-25T04:41:01.645Z,12.56
2018-04-25T04:42:06.013Z,12.57
2018-04-25T04:43:10.090Z,12.58
2018-04-25T04:44:14.165Z,12.63
2018-04-25T04:45:18.323Z,12.68
2018-04-25T04:46:22.379Z,12.69
2018-04-25T04:47:26.458Z,12.69
2018-04-25T04:48:30.860Z,12.69
2018-04-25T04:49:35.344Z,12.70
2018-04-25T04:50:39.451Z,12.68
2018-04-25T04:51:43.645Z,12.69
2018-04-25T04:52:48.711Z,12.68
2018-04-25T04:53:52.809Z,12.67
2018-04-25T04:54:56.885Z,12.61
2018-04-25T04:56:00.975Z,12.58
2018-04-25T04:57:05.243Z,12.55
2018-04-25T04:58:09.315Z,12.52
2018-04-25T04:59:13.403Z,12.51
2018-04-25T05:00:17.769Z,12.51
2018-04-25T05:01:21.870Z,12.53
2018-04-25T05:02:25.982Z,12.50
2018-04-25T05:03:30.069Z,12.49
2018-04-25T05:04:34.743Z,12.52
2018-04-25T05:05:38.831Z,12.49
2018-04-25T05:06:42.904Z,12.47
2018-04-25T05:07:47.771Z,12.42
2018-04-25T05:08:51.879Z,12.40
2018-04-25T05:09:56.857Z,12.39
2018-04-25T05:11:01.298Z,12.36
2018-04-25T05:12:05.419Z,12.36
2018-04-25T05:13:09.566Z,12.33
2018-04-25T05:14:13.612Z,12.34
2018-04-25T05:15:17.817Z,12.37
2018-04-25T05:16:21.912Z,12.37
2018-04-25T05:17:26.081Z,12.40
2018-04-25T05:18:30.255Z,12.40
2018-04-25T05:19:34.633Z,12.40
2018-04-25T05:20:38.783Z,12.40
2018-04-25T05:21:42.872Z,12.38
2018-04-25T05:22:47.673Z,12.37
2018-04-25T05:23:51.758Z,12.36
2018-04-25T05:24:55.846Z,12.34
2018-04-25T05:25:59.938Z,12.32
2018-04-25T05:27:04.046Z,12.34
2018-04-25T05:28:08.531Z,12.34
2018-04-25T05:29:12.631Z,12.32
2018-04-25T05:30:16.751Z,12.34
2018-04-25T05:31:20.829Z,12.37
2018-04-25T05:32:24.995Z,12.38
2018-04-25T05:33:29.076Z,12.38
2018-04-25T05:34:33.308Z,12.44
2018-04-25T05:35:37.689Z,12.41
2018-04-25T05:36:41.768Z,12.44
2018-04-25T05:37:46.514Z,12.50
2018-04-25T05:38:50.611Z,12.51
2018-04-25T05:39:54.740Z,12.51
2018-04-25T05:40:59.607Z,12.55
2018-04-25T05:42:03.799Z,12.65
2018-04-25T05:43:08.023Z,12.73
2018-04-25T05:44:12.154Z,12.79
2018-04-25T05:45:16.792Z,12.79
2018-04-25T05:46:20.894Z,12.84
2018-04-25T05:47:25.036Z,12.87
2018-04-25T05:48:29.131Z,12.80
2018-04-25T05:49:33.435Z,12.78
2018-04-25T05:50:37.572Z,12.82
2018-04-25T05:51:42.152Z,12.80
2018-04-25T05:52:47.075Z,12.80
2018-04-25T05:53:51.193Z,12.80
2018-04-25T05:54:55.370Z,12.78
2018-04-25T05:55:59.469Z,12.79
2018-04-25T05:57:03.586Z,12.86
2018-04-25T05:58:07.971Z,12.92
2018-04-25T05:59:12.122Z,12.95
2018-04-25T06:00:16.874Z,13.01
2018-04-25T06:01:21.042Z,12.96
2018-04-25T06:02:25.155Z,12.89
2018-04-25T06:03:29.292Z,12.89
2018-04-25T06:04:33.895Z,12.84
2018-04-25T06:05:38.126Z,12.83
2018-04-25T06:06:42.290Z,12.85
2018-04-25T06:07:47.201Z,12.80
2018-04-25T06:08:51.290Z,12.85
2018-04-25T06:09:56.282Z,12.92
2018-04-25T06:11:00.782Z,12.93
2018-04-25T06:12:04.875Z,12.93
2018-04-25T06:13:09.017Z,12.95
2018-04-25T06:14:13.225Z,12.93
2018-04-25T06:15:17.818Z,13.00
2018-04-25T06:16:22.690Z,12.98
2018-04-25T06:17:27.178Z,12.92
2018-04-25T06:18:31.309Z,12.87
2018-04-25T06:19:35.685Z,12.86
2018-04-25T06:20:40.059Z,12.99
2018-04-25T06:21:44.186Z,13.22
2018-04-25T06:22:48.661Z,13.39
2018-04-25T06:23:52.855Z,13.44
2018-04-25T06:24:56.907Z,13.48
2018-04-25T06:26:01.139Z,13.52
2018-04-25T06:27:05.223Z,13.49
2018-04-25T06:28:09.455Z,13.52
2018-04-25T06:29:13.871Z,13.63
2018-04-25T06:30:18.155Z,13.61
2018-04-25T06:31:22.284Z,13.68
2018-04-25T06:32:26.477Z,13.60
2018-04-25T06:33:30.621Z,13.47
2018-04-25T06:34:34.715Z,13.44
2018-04-25T06:35:39.078Z,13.47
2018-04-25T06:36:43.334Z,13.56
2018-04-25T06:37:48.256Z,13.56
2018-04-25T06:38:52.548Z,13.60
2018-04-25T06:39:56.643Z,13.63
2018-04-25T06:41:00.722Z,13.58
2018-04-25T06:42:04.861Z,13.65
2018-04-25T06:43:09.036Z,13.59
2018-04-25T06:44:13.188Z,13.57
2018-04-25T06:45:17.309Z,13.65
2018-04-25T06:46:21.430Z,13.64
2018-04-25T06:47:25.846Z,13.64
2018-04-25T06:48:30.007Z,13.60
2018-04-25T06:49:34.119Z,13.60
2018-04-25T06:50:38.540Z,13.64
2018-04-25T06:51:42.792Z,13.63
2018-04-25T06:52:46.902Z,13.65
2018-04-25T06:53:51.635Z,13.68
2018-04-25T06:54:55.736Z,13.76
2018-04-25T06:56:00.509Z,13.86
2018-04-25T06:57:04.619Z,14.12
2018-04-25T06:58:08.712Z,14.43
2018-04-25T06:59:13.135Z,14.36
2018-04-25T07:00:17.345Z,14.27
2018-04-25T07:01:21.742Z,14.21
2018-04-25T07:02:25.816Z,14.04
2018-04-25T07:03:30.017Z,13.97
2018-04-25T07:04:34.195Z,13.84
2018-04-25T07:05:38.539Z,13.79
2018-04-25T07:06:42.816Z,13.59
2018-04-25T07:07:46.897Z,13.53
2018-04-25T07:08:51.740Z,13.51
2018-04-25T07:09:56.716Z,13.62
2018-04-25T07:11:01.742Z,13.47
2018-04-25T07:12:05.994Z,13.34
2018-04-25T07:13:10.094Z,13.35
2018-04-25T07:14:14.281Z,13.27
2018-04-25T07:15:18.532Z,13.08
2018-04-25T07:16:22.710Z,13.03
2018-04-25T07:17:27.269Z,13.14
2018-04-25T07:18:31.709Z,13.25
2018-04-25T07:19:35.873Z,13.19
2018-04-25T07:20:40.264Z,13.10
2018-04-25T07:21:44.454Z,12.97
2018-04-25T07:22:48.631Z,12.86
2018-04-25T07:23:53.398Z,12.68
2018-04-25T07:24:57.536Z,12.64
2018-04-25T07:26:02.459Z,12.64
2018-04-25T07:27:06.609Z,12.67
2018-04-25T07:28:10.746Z,12.61
2018-04-25T07:29:14.846Z,12.48
2018-04-25T07:30:19.199Z,12.34
2018-04-25T07:31:23.366Z,12.15
2018-04-25T07:32:27.443Z,12.07
2018-04-25T07:33:31.563Z,12.04
2018-04-25T07:34:36.068Z,12.01
2018-04-25T07:35:40.383Z,12.08
2018-04-25T07:36:44.519Z,12.29
2018-04-25T07:37:48.747Z,12.27
2018-04-25T07:38:52.970Z,12.12
2018-04-25T07:39:57.085Z,12.14
2018-04-25T07:41:01.224Z,12.13
2018-04-25T07:42:05.309Z,11.98
2018-04-25T07:43:09.513Z,11.94
2018-04-25T07:44:13.606Z,12.06
2018-04-25T07:45:18.025Z,12.02
2018-04-25T07:46:22.115Z,11.93
2018-04-25T07:47:26.286Z,11.84
2018-04-25T07:48:30.539Z,11.85
2018-04-25T07:49:34.827Z,11.94
2018-04-25T07:50:39.127Z,11.83
2018-04-25T07:51:43.244Z,11.99
2018-04-25T07:52:47.414Z,12.13
2018-04-25T07:53:51.514Z,12.27
2018-04-25T07:54:55.635Z,12.07
2018-04-25T07:55:59.818Z,12.03
2018-04-25T07:57:04.590Z,11.94
2018-04-25T07:58:09.026Z,12.11
2018-04-25T07:59:13.235Z,12.21
2018-04-25T08:00:17.619Z,12.15
2018-04-25T08:01:21.729Z,12.03
2018-04-25T08:02:25.839Z,12.06
2018-04-25T08:03:29.954Z,12.04
2018-04-25T08:04:34.439Z,11.88
2018-04-25T08:05:38.697Z,11.65
2018-04-25T08:06:42.923Z,11.51
2018-04-25T08:07:47.035Z,11.45
2018-04-25T08:08:51.121Z,11.52
2018-04-25T08:09:55.221Z,11.59
2018-04-25T08:10:59.643Z,11.76
2018-04-25T08:12:04.210Z,11.88
2018-04-25T08:15:22.561Z,11.92
2018-04-25T08:16:37.915Z,11.76
2018-04-25T08:19:56.738Z,11.80
2018-04-25T08:21:09.737Z,11.44
2018-04-25T08:22:14.196Z,11.25
2018-04-25T08:23:18.286Z,11.13
2018-04-25T08:24:22.493Z,11.06
2018-04-25T08:25:26.599Z,11.14
2018-04-25T08:26:30.821Z,11.01
2018-04-25T08:27:34.963Z,10.90
2018-04-25T08:28:39.876Z,10.90
2018-04-25T08:29:44.140Z,10.96
2018-04-25T08:30:48.477Z,11.06
2018-04-25T08:31:53.339Z,11.18
2018-04-25T08:32:57.441Z,11.30
2018-04-25T08:34:01.513Z,11.29
2018-04-25T08:35:05.951Z,11.14
2018-04-25T08:36:10.122Z,11.10
2018-04-25T08:37:14.194Z,11.00
2018-04-25T08:38:19.259Z,10.78
2018-04-25T08:39:23.438Z,10.70
2018-04-25T08:40:27.514Z,10.67
2018-04-25T08:41:31.983Z,10.54
2018-04-25T08:42:36.078Z,10.54
2018-04-25T08:43:40.246Z,10.47
2018-04-25T08:44:44.410Z,10.49
2018-04-25T08:45:48.829Z,10.50
2018-04-25T08:46:53.327Z,10.61
2018-04-25T08:47:57.432Z,10.70
2018-04-25T08:49:01.626Z,10.72
2018-04-25T08:50:06.695Z,10.75
2018-04-25T08:51:10.819Z,10.72
2018-04-25T08:52:15.024Z,10.66
2018-04-25T08:53:19.841Z,10.57
2018-04-25T08:54:23.970Z,10.61
2018-04-25T08:55:28.143Z,10.60
2018-04-25T08:56:32.235Z,10.64
2018-04-25T08:57:36.298Z,10.65
2018-04-25T08:58:40.711Z,10.53
2018-04-25T08:59:44.882Z,10.41
2018-04-25T09:00:49.639Z,10.36
2018-04-25T09:01:53.932Z,10.18
2018-04-25T09:02:58.033Z,10.04
2018-04-25T09:04:02.112Z,9.86
2018-04-25T09:05:06.811Z,9.83
2018-04-25T09:06:10.969Z,9.87
2018-04-25T09:07:15.037Z,10.00
2018-04-25T09:08:19.154Z,9.89
2018-04-25T09:09:23.263Z,9.78
2018-04-25T09:10:27.455Z,9.83
2018-04-25T09:11:32.521Z,9.85
2018-04-25T09:12:36.737Z,9.91
2018-04-25T09:13:40.896Z,9.97
2018-04-25T09:14:45.027Z,10.11
2018-04-25T09:15:49.631Z,10.13
2018-04-25T09:16:53.852Z,10.07
2018-04-25T09:17:57.989Z,10.13
2018-04-25T09:19:02.114Z,10.19
2018-04-25T09:20:06.842Z,10.26
2018-04-25T09:21:11.035Z,10.34
2018-04-25T09:22:15.135Z,10.48
2018-04-25T09:23:19.354Z,10.45
2018-04-25T09:24:23.561Z,10.49
2018-04-25T09:25:27.701Z,10.45
2018-04-25T09:26:32.546Z,10.51
2018-04-25T09:27:36.655Z,10.43
2018-04-25T09:28:40.838Z,10.45
2018-04-25T09:29:44.958Z,10.55
2018-04-25T09:30:49.665Z,10.54
2018-04-25T09:31:53.888Z,10.48
2018-04-25T09:32:58.051Z,10.40
2018-04-25T09:34:02.135Z,10.25
2018-04-25T09:35:06.368Z,10.13
2018-04-25T09:36:10.554Z,10.07
2018-04-25T09:37:14.641Z,10.12
2018-04-25T09:38:18.751Z,10.23
2018-04-25T09:39:23.171Z,10.44
2018-04-25T09:40:27.358Z,10.74
2018-04-25T09:41:31.502Z,10.78
2018-04-25T09:42:35.587Z,10.97
2018-04-25T09:43:39.681Z,10.93
2018-04-25T09:44:43.778Z,10.99
2018-04-25T09:45:48.367Z,11.10
2018-04-25T09:46:52.883Z,11.17
2018-04-25T09:47:57.224Z,11.23
2018-04-25T09:49:01.616Z,11.14
2018-04-25T09:50:05.732Z,10.88
2018-04-25T09:51:10.643Z,10.78
2018-04-25T09:52:15.046Z,10.77
2018-04-25T09:53:19.269Z,10.79
2018-04-25T09:54:23.455Z,10.85
2018-04-25T09:55:27.589Z,10.85
2018-04-25T09:56:31.661Z,10.82
2018-04-25T09:57:36.634Z,10.68
2018-04-25T09:58:40.733Z,10.70
2018-04-25T09:59:44.846Z,10.73
2018-04-25T10:00:53.425Z,10.76
2018-04-25T10:02:01.711Z,10.61
2018-04-25T10:03:09.828Z,10.67
2018-04-25T10:04:13.994Z,10.60
2018-04-25T10:05:18.078Z,10.64
2018-04-25T10:06:22.184Z,10.61
2018-04-25T10:07:26.755Z,10.68
2018-04-25T10:08:30.942Z,10.69
2018-04-25T10:09:35.046Z,10.62
2018-04-25T10:10:40.082Z,10.71
2018-04-25T10:11:44.167Z,10.79
2018-04-25T10:12:48.288Z,10.81
2018-04-25T10:13:52.732Z,10.77
2018-04-25T10:14:56.988Z,10.69
2018-04-25T10:16:01.802Z,10.55
2018-04-25T10:17:06.580Z,10.54
2018-04-25T10:18:10.658Z,10.62
2018-04-25T10:19:15.418Z,10.63
2018-04-25T10:20:19.566Z,10.51
2018-04-25T10:21:23.668Z,10.48
2018-04-25T10:22:27.929Z,10.52
2018-04-25T10:23:32.068Z,10.54
2018-04-25T10:24:36.805Z,10.47
2018-04-25T10:25:42.150Z,10.29
2018-04-25T10:26:46.242Z,10.17
2018-04-25T10:27:50.401Z,10.09
2018-04-25T10:28:54.585Z,10.12
2018-04-25T10:29:58.774Z,10.11
2018-04-25T10:31:03.592Z,10.26
2018-04-25T10:32:08.191Z,10.33
2018-04-25T10:33:12.600Z,10.48
2018-04-25T10:34:16.681Z,10.48
2018-04-25T10:35:20.855Z,10.55
2018-04-25T10:36:24.958Z,10.63
2018-04-25T10:37:29.218Z,10.66
2018-04-25T10:38:33.289Z,10.69
2018-04-25T10:39:37.511Z,10.70
2018-04-25T10:40:41.588Z,10.74
2018-04-25T10:41:45.879Z,10.72
2018-04-25T10:42:50.049Z,10.67
2018-04-25T10:43:54.166Z,10.65
2018-04-25T10:44:58.242Z,10.47
2018-04-25T10:46:02.686Z,10.33
2018-04-25T10:47:06.960Z,10.25
2018-04-25T10:48:11.170Z,10.12
2018-04-25T10:49:16.139Z,10.05
2018-04-25T10:50:20.888Z,9.93
2018-04-25T10:51:24.970Z,9.88
2018-04-25T10:52:29.056Z,10.08
2018-04-25T10:53:34.847Z,10.30
2018-04-25T10:54:39.197Z,10.28
2018-04-25T10:55:43.683Z,10.21
2018-04-25T10:56:47.779Z,10.18
2018-04-25T10:57:51.918Z,10.24
2018-04-25T10:58:56.063Z,10.28
2018-04-25T11:00:00.169Z,10.26
2018-04-25T11:01:04.912Z,10.21
2018-04-25T11:02:09.448Z,10.27
2018-04-25T11:03:13.547Z,10.35
2018-04-25T11:04:17.949Z,10.29
2018-04-25T11:05:22.208Z,10.35
2018-04-25T11:06:26.296Z,10.27
2018-04-25T11:07:30.429Z,10.29
2018-04-25T11:08:34.650Z,10.38
2018-04-25T11:09:38.757Z,10.39
2018-04-25T11:10:42.933Z,10.35
2018-04-25T11:11:47.316Z,10.15
2018-04-25T11:12:52.391Z,10.10
2018-04-25T11:13:57.620Z,10.15
2018-04-25T11:15:03.469Z,10.03
2018-04-25T11:16:09.457Z,9.94
2018-04-25T11:17:13.603Z,9.90
2018-04-25T11:18:18.199Z,9.85
2018-04-25T11:19:22.277Z,9.80
2018-04-25T11:20:27.409Z,9.80
2018-04-25T11:21:31.780Z,9.88
2018-04-25T11:22:36.742Z,9.98
2018-04-25T11:23:41.714Z,10.01
2018-04-25T11:24:49.335Z,9.97
2018-04-25T11:25:59.969Z,10.14
2018-04-25T11:27:05.520Z,10.17
2018-04-25T11:28:11.211Z,10.27
2018-04-25T11:29:15.944Z,10.41
2018-04-25T11:30:20.923Z,10.26
2018-04-25T11:31:25.094Z,10.15
2018-04-25T11:32:29.215Z,10.08
2018-04-25T11:33:33.317Z,9.97
2018-04-25T11:34:37.979Z,9.94
2018-04-25T11:35:42.237Z,9.81
2018-04-25T11:36:46.449Z,9.69
2018-04-25T11:37:51.301Z,9.69
2018-04-25T11:38:55.407Z,9.69
2018-04-25T11:39:59.566Z,9.71
2018-04-25T11:41:04.471Z,9.83
2018-04-25T11:42:08.837Z,9.92
2018-04-25T11:43:13.071Z,9.91
2018-04-25T11:44:17.160Z,9.99
2018-04-25T11:45:22.468Z,9.86
2018-04-25T11:46:26.638Z,9.81
2018-04-25T11:47:30.778Z,9.85
2018-04-25T11:48:36.016Z,9.83
2018-04-25T11:49:40.148Z,9.88
2018-04-25T11:50:44.295Z,9.74
2018-04-25T11:51:48.566Z,9.72
2018-04-25T11:52:53.999Z,9.80
2018-04-25T11:53:58.135Z,9.89
2018-04-25T11:55:02.314Z,9.97
2018-04-25T11:56:06.423Z,9.95
2018-04-25T11:57:10.505Z,10.03
2018-04-25T11:58:14.851Z,10.06
2018-04-25T11:59:19.201Z,10.21
2018-04-25T12:00:23.768Z,10.23
2018-04-25T12:01:27.946Z,10.31
2018-04-25T12:02:32.221Z,10.44
2018-04-25T12:03:36.335Z,10.58
2018-04-25T12:04:40.512Z,10.68
2018-04-25T12:05:44.726Z,10.66
2018-04-25T12:06:48.844Z,10.73
2018-04-25T12:07:52.921Z,10.79
2018-04-25T12:08:57.248Z,10.92
2018-04-25T12:10:01.425Z,11.16
2018-04-25T12:11:05.495Z,11.37
2018-04-25T12:12:09.642Z,11.42
2018-04-25T12:13:13.821Z,11.35
2018-04-25T12:14:18.044Z,11.23
2018-04-25T12:15:22.855Z,11.20
2018-04-25T12:16:26.987Z,11.21
2018-04-25T12:17:31.081Z,11.24
2018-04-25T12:18:35.198Z,11.34
2018-04-25T12:19:39.411Z,11.54
2018-04-25T12:20:43.522Z,11.76
2018-04-25T12:21:49.043Z,11.97
2018-04-25T12:22:53.132Z,12.19
2018-04-25T12:23:57.283Z,12.30
2018-04-25T12:25:01.376Z,12.52
2018-04-25T12:26:05.558Z,12.51
2018-04-25T12:27:09.654Z,12.39
2018-04-25T12:28:14.140Z,12.39
2018-04-25T12:29:18.275Z,12.58
2018-04-25T12:30:23.028Z,12.84
2018-04-25T12:31:27.260Z,12.83
2018-04-25T12:32:31.366Z,12.79
2018-04-25T12:33:35.491Z,12.80
2018-04-25T12:34:39.655Z,12.83
2018-04-25T12:35:43.835Z,12.95
2018-04-25T12:36:47.905Z,12.98
2018-04-25T12:37:52.113Z,12.88
2018-04-25T12:38:56.942Z,13.03
2018-04-25T12:40:01.051Z,13.03
2018-04-25T12:41:05.250Z,13.34
2018-04-25T12:42:09.347Z,13.35
2018-04-25T12:43:13.430Z,13.41
2018-04-25T12:44:17.623Z,13.52
2018-04-25T12:45:22.261Z,13.80
2018-04-25T12:46:26.480Z,14.04
2018-04-25T12:47:30.642Z,14.53
2018-04-25T12:48:34.728Z,14.50
2018-04-25T12:49:38.853Z,14.27
2018-04-25T12:50:42.999Z,13.99
2018-04-25T12:51:47.173Z,13.79
2018-04-25T12:52:51.412Z,13.51
2018-04-25T12:53:55.557Z,13.60
2018-04-25T12:55:00.656Z,13.72
2018-04-25T12:56:04.789Z,13.64
2018-04-25T12:57:08.975Z,13.27
2018-04-25T12:58:13.064Z,13.21
2018-04-25T12:59:17.285Z,13.24
2018-04-25T13:00:21.506Z,13.08
2018-04-25T13:01:25.986Z,12.68
2018-04-25T13:02:30.444Z,12.31
2018-04-25T13:03:34.642Z,12.14
2018-04-25T13:04:38.745Z,11.96
2018-04-25T13:05:43.773Z,12.05
2018-04-25T13:06:47.919Z,12.10
2018-04-25T13:07:52.501Z,11.90
2018-04-25T13:08:56.648Z,11.66
2018-04-25T13:10:00.748Z,11.49
2018-04-25T13:11:05.042Z,11.37
2018-04-25T13:12:09.211Z,11.31
2018-04-25T13:13:13.327Z,11.37
2018-04-25T13:14:17.980Z,11.45
2018-04-25T13:15:22.314Z,11.38
2018-04-25T13:16:26.721Z,11.40
2018-04-25T13:17:31.191Z,11.45
2018-04-25T13:18:35.311Z,11.39
2018-04-25T13:19:39.389Z,11.37
2018-04-25T13:20:43.826Z,11.41
2018-04-25T13:21:47.932Z,11.26
2018-04-25T13:22:52.138Z,11.19
2018-04-25T13:23:56.243Z,11.23
2018-04-25T13:25:00.399Z,11.25
2018-04-25T13:26:04.854Z,11.28
2018-04-25T13:27:08.972Z,11.15
2018-04-25T13:28:13.073Z,11.16
2018-04-25T13:29:17.351Z,11.32
2018-04-25T13:30:21.592Z,11.26
2018-04-25T13:31:26.047Z,11.32
2018-04-25T13:32:30.490Z,11.37
2018-04-25T13:33:35.305Z,11.25
2018-04-25T13:34:39.748Z,11.17
2018-04-25T13:35:43.915Z,11.06
2018-04-25T13:36:48.065Z,10.98
2018-04-25T13:37:52.301Z,10.99
2018-04-25T13:38:56.698Z,11.41
2018-04-25T13:40:00.816Z,11.70
2018-04-25T13:41:04.986Z,11.69
2018-04-25T13:42:09.236Z,11.51
2018-04-25T13:43:13.366Z,11.38
2018-04-25T13:44:17.505Z,11.24
2018-04-25T13:45:21.670Z,11.38
2018-04-25T13:46:26.047Z,11.53
2018-04-25T13:47:30.335Z,11.54
2018-04-25T13:48:34.955Z,11.41
2018-04-25T13:49:39.251Z,11.55
2018-04-25T13:50:43.464Z,11.56
2018-04-25T13:51:47.555Z,11.52
2018-04-25T13:52:52.545Z,11.52
2018-04-25T13:53:56.622Z,11.73
2018-04-25T13:55:00.834Z,11.78
2018-04-25T13:56:04.983Z,11.79
2018-04-25T13:57:09.446Z,11.79